createdAt,value
2023-03-06T00:00:23.267Z,7.60
2023-03-06T00:02:49.594Z,7.50
2023-03-06T00:05:15.926Z,7.51
2023-03-06T00:07:42.292Z,7.51
2023-03-06T00:10:08.609Z,7.47
2023-03-06T00:12:34.932Z,7.45
2023-03-06T00:15:01.320Z,7.43
2023-03-06T00:17:27.645Z,7.42
2023-03-06T00:19:53.950Z,7.38
2023-03-06T00:22:20.295Z,7.38
2023-03-06T00:24:46.597Z,7.45
2023-03-06T00:27:12.916Z,7.41
2023-03-06T00:29:39.412Z,7.43
2023-03-06T00:32:05.849Z,7.47
2023-03-06T00:34:33.486Z,7.47
2023-03-06T00:36:59.855Z,7.42
2023-03-06T00:39:26.199Z,7.41
2023-03-06T00:41:53.309Z,7.38
2023-03-06T00:44:19.676Z,7.38
2023-03-06T00:46:46.052Z,7.38
2023-03-06T00:49:12.389Z,7.37
2023-03-06T00:51:38.747Z,7.34
2023-03-06T00:54:05.070Z,7.29
2023-03-06T00:56:31.396Z,7.31
2023-03-06T00:58:57.774Z,7.32
2023-03-06T01:01:25.016Z,7.25
2023-03-06T01:03:51.336Z,7.26
2023-03-06T01:06:19.356Z,7.29
2023-03-06T01:08:45.686Z,7.29
2023-03-06T01:11:12.014Z,7.31
2023-03-06T01:13:38.393Z,7.27
2023-03-06T01:16:06.173Z,7.25
2023-03-06T01:18:32.729Z,7.21
2023-03-06T01:20:59.111Z,7.22
2023-03-06T01:23:25.427Z,7.23
2023-03-06T01:25:53.752Z,7.21
2023-03-06T01:28:20.145Z,7.12
2023-03-06T01:30:46.466Z,7.15
2023-03-06T01:33:12.797Z,7.19
2023-03-06T01:35:39.259Z,7.18
2023-03-06T01:38:05.646Z,7.14
2023-03-06T01:40:31.980Z,7.15
2023-03-06T01:42:58.818Z,7.08
2023-03-06T01:45:25.136Z,7.12
2023-03-06T01:47:51.528Z,7.08
2023-03-06T01:50:17.966Z,7.10
2023-03-06T01:52:44.293Z,7.08
2023-03-06T01:55:10.636Z,7.07
2023-03-06T01:57:37.006Z,7.04
2023-03-06T02:00:03.345Z,7.01
2023-03-06T02:02:39.636Z,6.98
2023-03-06T02:05:07.341Z,6.94
2023-03-06T02:07:33.657Z,6.92
2023-03-06T02:10:00.024Z,6.91
2023-03-06T02:12:26.346Z,6.89
2023-03-06T02:14:52.676Z,6.88
2023-03-06T02:17:20.345Z,6.87
2023-03-06T02:19:46.732Z,6.84
2023-03-06T02:22:13.097Z,6.83
2023-03-06T02:24:39.522Z,6.83
2023-03-06T02:27:05.863Z,6.83
2023-03-06T02:29:32.380Z,6.80
2023-03-06T02:32:02.044Z,6.78
2023-03-06T02:34:28.452Z,6.77
2023-03-06T02:36:54.775Z,6.76
2023-03-06T02:39:21.145Z,6.74
2023-03-06T02:41:47.900Z,6.74
2023-03-06T02:44:15.058Z,6.73
2023-03-06T02:46:42.358Z,6.73
2023-03-06T02:49:09.374Z,6.70
2023-03-06T02:51:35.690Z,6.69
2023-03-06T02:54:02.080Z,6.64
2023-03-06T02:56:28.409Z,6.62
2023-03-06T02:58:56.396Z,6.61
2023-03-06T03:01:24.057Z,6.56
2023-03-06T03:03:50.396Z,6.53
2023-03-06T03:06:16.731Z,6.58
2023-03-06T03:08:44.006Z,6.75
2023-03-06T03:11:11.097Z,6.98
2023-03-06T03:13:41.454Z,7.27
2023-03-06T03:16:12.282Z,7.61
2023-03-06T03:18:38.628Z,7.95
2023-03-06T03:21:04.988Z,8.28
2023-03-06T03:23:31.400Z,8.61
2023-03-06T03:25:57.721Z,8.93
2023-03-06T03:28:24.130Z,9.24
2023-03-06T03:30:50.626Z,9.55
2023-03-06T03:33:17.030Z,9.87
2023-03-06T03:35:43.875Z,10.18
2023-03-06T03:38:10.311Z,10.46
2023-03-06T03:40:36.760Z,10.82
2023-03-06T03:43:03.170Z,11.12
2023-03-06T03:45:29.582Z,11.37
2023-03-06T03:47:56.073Z,11.66
2023-03-06T03:50:23.837Z,11.87
2023-03-06T03:52:50.273Z,12.11
2023-03-06T03:55:16.715Z,12.36
2023-03-06T03:57:43.145Z,12.60
2023-03-06T04:00:10.031Z,12.87
2023-03-06T04:02:56.783Z,13.14
2023-03-06T04:05:28.944Z,13.41
2023-03-06T04:07:55.529Z,13.68
2023-03-06T04:10:21.948Z,13.93
2023-03-06T04:12:49.177Z,14.19
2023-03-06T04:15:16.164Z,14.42
2023-03-06T04:17:44.331Z,14.67
2023-03-06T04:20:14.816Z,14.94
2023-03-06T04:22:41.536Z,15.08
2023-03-06T04:25:09.589Z,15.41
2023-03-06T04:27:35.983Z,15.46
2023-03-06T04:30:02.730Z,15.83
2023-03-06T04:32:30.055Z,15.99
2023-03-06T04:34:56.898Z,16.22
2023-03-06T04:37:25.820Z,16.47
2023-03-06T04:39:53.241Z,16.67
2023-03-06T04:42:19.774Z,16.86
2023-03-06T04:44:46.175Z,17.03
2023-03-06T04:47:12.761Z,17.23
2023-03-06T04:49:39.344Z,17.37
2023-03-06T04:52:05.858Z,17.63
2023-03-06T04:54:32.298Z,17.80
2023-03-06T04:56:58.835Z,18.01
2023-03-06T04:59:25.337Z,18.23
2023-03-06T05:01:51.816Z,18.47
2023-03-06T05:04:18.354Z,18.65
2023-03-06T05:06:44.839Z,18.88
2023-03-06T05:09:11.422Z,19.15
2023-03-06T05:11:37.882Z,19.35
2023-03-06T05:14:04.275Z,19.57
2023-03-06T05:16:30.776Z,19.74
2023-03-06T05:18:57.348Z,19.91
2023-03-06T05:21:23.817Z,20.03
2023-03-06T05:23:50.279Z,20.09
2023-03-06T05:26:16.786Z,20.25
2023-03-06T05:28:43.179Z,20.35
2023-03-06T05:31:09.616Z,20.50
2023-03-06T05:33:36.174Z,20.62
2023-03-06T05:36:03.029Z,20.74
2023-03-06T05:38:29.513Z,20.89
2023-03-06T05:40:56.101Z,21.03
2023-03-06T05:43:22.612Z,21.20
2023-03-06T05:45:49.071Z,21.32
2023-03-06T05:48:15.670Z,21.45
2023-03-06T05:50:42.156Z,21.58
2023-03-06T05:53:08.596Z,21.61
2023-03-06T05:55:35.060Z,21.21
2023-03-06T05:58:02.480Z,20.92
2023-03-06T06:00:28.992Z,20.86
2023-03-06T06:02:55.545Z,20.89
2023-03-06T06:05:22.040Z,20.92
2023-03-06T06:07:48.417Z,20.89
2023-03-06T06:10:14.925Z,20.81
2023-03-06T06:12:41.338Z,20.84
2023-03-06T06:15:07.763Z,20.90
2023-03-06T06:17:34.337Z,20.91
2023-03-06T06:20:00.733Z,20.86
2023-03-06T06:22:27.095Z,20.90
2023-03-06T06:24:53.514Z,20.88
2023-03-06T06:27:19.879Z,20.91
2023-03-06T06:29:46.289Z,20.92
2023-03-06T06:32:12.734Z,20.82
2023-03-06T06:34:39.110Z,20.89
2023-03-06T06:37:05.530Z,20.89
2023-03-06T06:39:32.067Z,20.89
2023-03-06T06:42:15.424Z,20.55
2023-03-06T06:44:45.018Z,20.85
2023-03-06T06:47:23.070Z,20.96
2023-03-06T06:49:50.926Z,20.91
2023-03-06T06:52:17.299Z,20.84
2023-03-06T06:54:43.726Z,20.71
2023-03-06T06:57:10.305Z,20.76
2023-03-06T06:59:36.671Z,20.78
2023-03-06T07:02:03.103Z,20.53
2023-03-06T07:04:29.570Z,20.32
2023-03-06T07:06:55.921Z,20.20
2023-03-06T07:09:22.320Z,20.11
2023-03-06T07:11:48.846Z,20.08
2023-03-06T07:14:15.214Z,19.94
2023-03-06T07:16:41.565Z,20.03
2023-03-06T07:19:07.995Z,20.21
2023-03-06T07:21:34.364Z,20.30
2023-03-06T07:24:00.736Z,20.34
2023-03-06T07:26:27.141Z,20.27
2023-03-06T07:28:53.567Z,20.16
2023-03-06T07:31:19.991Z,20.13
2023-03-06T07:33:46.452Z,20.39
2023-03-06T07:36:13.850Z,20.45
2023-03-06T07:38:40.337Z,20.49
2023-03-06T07:41:06.802Z,20.51
2023-03-06T07:43:33.191Z,20.47
2023-03-06T07:46:02.369Z,20.46
2023-03-06T07:48:28.803Z,20.56
2023-03-06T07:50:55.190Z,20.62
2023-03-06T07:53:21.557Z,20.62
2023-03-06T07:55:48.007Z,20.56
2023-03-06T07:58:14.399Z,20.55
2023-03-06T08:00:40.845Z,20.57
2023-03-06T08:03:07.255Z,20.59
2023-03-06T08:05:33.668Z,20.58
2023-03-06T08:08:00.054Z,20.54
2023-03-06T08:10:26.538Z,20.30
2023-03-06T08:12:52.910Z,20.23
2023-03-06T08:15:19.260Z,20.46
2023-03-06T08:17:45.691Z,20.43
2023-03-06T08:20:12.035Z,20.64
2023-03-06T08:22:38.325Z,20.79
2023-03-06T08:25:04.713Z,20.79
2023-03-06T08:27:31.079Z,20.51
2023-03-06T08:29:57.439Z,20.88
2023-03-06T08:32:23.945Z,21.00
2023-03-06T08:34:50.359Z,21.09
2023-03-06T08:37:16.823Z,20.99
2023-03-06T08:39:43.250Z,20.86
2023-03-06T08:42:09.594Z,20.84
2023-03-06T08:44:35.998Z,20.89
2023-03-06T08:47:02.396Z,20.96
2023-03-06T08:49:28.751Z,21.02
2023-03-06T08:51:55.105Z,21.09
2023-03-06T08:54:21.498Z,21.27
2023-03-06T08:56:47.848Z,21.49
2023-03-06T08:59:14.204Z,21.69
2023-03-06T09:01:40.652Z,21.94
2023-03-06T09:04:07.020Z,22.14
2023-03-06T09:06:33.379Z,22.31
2023-03-06T09:08:59.787Z,22.32
2023-03-06T09:11:26.140Z,21.85
2023-03-06T09:13:52.500Z,21.93
2023-03-06T09:16:18.971Z,22.47
2023-03-06T09:18:45.339Z,22.32
2023-03-06T09:21:11.721Z,21.99
2023-03-06T09:23:38.151Z,21.16
2023-03-06T09:26:04.508Z,21.41
2023-03-06T09:28:30.873Z,21.27
2023-03-06T09:30:57.370Z,21.06
2023-03-06T09:33:23.752Z,20.93
2023-03-06T09:35:50.127Z,20.73
2023-03-06T09:38:16.537Z,20.57
2023-03-06T09:40:42.922Z,20.69
2023-03-06T09:43:09.291Z,21.09
2023-03-06T09:45:35.749Z,21.52
2023-03-06T09:48:02.092Z,21.98
2023-03-06T09:50:28.533Z,22.41
2023-03-06T09:52:54.927Z,22.70
2023-03-06T09:55:21.288Z,22.69
2023-03-06T09:57:47.653Z,23.01
2023-03-06T10:00:14.062Z,23.33
2023-03-06T10:02:40.571Z,23.58
2023-03-06T10:05:07.085Z,23.98
2023-03-06T10:07:33.495Z,24.30
2023-03-06T10:09:59.879Z,24.59
2023-03-06T10:12:26.240Z,24.90
2023-03-06T10:14:52.655Z,25.12
2023-03-06T10:17:18.994Z,25.37
2023-03-06T10:19:45.383Z,25.64
2023-03-06T10:22:11.812Z,25.13
2023-03-06T10:24:38.183Z,24.34
2023-03-06T10:27:04.628Z,23.62
2023-03-06T10:29:31.047Z,23.06
2023-03-06T10:31:57.482Z,23.10
2023-03-06T10:34:23.817Z,23.57
2023-03-06T10:36:50.240Z,24.11
2023-03-06T10:39:16.596Z,24.66
2023-03-06T10:41:44.600Z,25.10
2023-03-06T10:44:11.092Z,24.98
2023-03-06T10:46:37.519Z,23.96
2023-03-06T10:49:03.925Z,23.77
2023-03-06T10:51:30.341Z,24.12
2023-03-06T10:53:56.700Z,24.46
2023-03-06T10:56:23.077Z,24.82
2023-03-06T10:58:49.481Z,25.11
2023-03-06T11:01:15.876Z,25.37
2023-03-06T11:03:42.265Z,25.79
2023-03-06T11:06:10.449Z,26.09
2023-03-06T11:08:37.866Z,26.04
2023-03-06T11:11:04.267Z,26.51
2023-03-06T11:13:30.677Z,26.87
2023-03-06T11:15:57.133Z,27.05
2023-03-06T11:18:23.516Z,27.23
2023-03-06T11:20:52.868Z,27.43
2023-03-06T11:23:19.569Z,27.28
2023-03-06T11:25:45.955Z,27.81
2023-03-06T11:28:12.396Z,28.01
2023-03-06T11:30:38.756Z,28.18
2023-03-06T11:33:05.102Z,28.27
2023-03-06T11:35:31.533Z,27.78
2023-03-06T11:37:57.899Z,27.40
2023-03-06T11:40:24.247Z,27.13
2023-03-06T11:42:50.651Z,26.57
2023-03-06T11:45:17.031Z,26.24
2023-03-06T11:47:43.408Z,26.42
2023-03-06T11:50:09.790Z,26.72
2023-03-06T11:52:36.156Z,26.53
2023-03-06T11:55:02.530Z,26.69
2023-03-06T11:57:28.947Z,26.65
2023-03-06T11:59:55.313Z,26.79
2023-03-06T12:02:21.797Z,26.94
2023-03-06T12:04:48.328Z,27.07
2023-03-06T12:07:14.707Z,27.07
2023-03-06T12:09:41.097Z,26.94
2023-03-06T12:12:07.586Z,26.86
2023-03-06T12:14:33.977Z,26.92
2023-03-06T12:17:00.477Z,27.02
2023-03-06T12:19:26.945Z,26.98
2023-03-06T12:21:53.305Z,26.94
2023-03-06T12:24:19.732Z,26.85
2023-03-06T12:26:46.193Z,26.87
2023-03-06T12:29:12.578Z,26.92
2023-03-06T12:31:39.016Z,26.65
2023-03-06T12:34:05.457Z,26.24
2023-03-06T12:36:31.870Z,26.13
2023-03-06T12:38:58.237Z,26.18
2023-03-06T12:41:24.767Z,26.33
2023-03-06T12:43:51.132Z,26.35
2023-03-06T12:46:17.547Z,26.22
2023-03-06T12:48:43.980Z,26.24
2023-03-06T12:51:10.360Z,26.31
2023-03-06T12:53:36.717Z,26.36
2023-03-06T12:56:03.194Z,26.32
2023-03-06T12:58:29.574Z,26.29
2023-03-06T13:01:03.592Z,26.23
2023-03-06T13:03:30.593Z,26.26
2023-03-06T13:05:57.034Z,26.31
2023-03-06T13:08:23.446Z,26.26
2023-03-06T13:10:49.879Z,26.18
2023-03-06T13:13:16.340Z,26.09
2023-03-06T13:15:42.733Z,26.06
2023-03-06T13:18:09.202Z,25.85
2023-03-06T13:20:35.598Z,25.72
2023-03-06T13:23:01.980Z,25.65
2023-03-06T13:25:28.443Z,25.63
2023-03-06T13:27:54.833Z,25.69
2023-03-06T13:30:21.205Z,25.78
2023-03-06T13:32:47.662Z,25.78
2023-03-06T13:35:14.027Z,25.77
2023-03-06T13:37:40.316Z,25.69
2023-03-06T13:40:06.753Z,25.59
2023-03-06T13:42:33.092Z,25.53
2023-03-06T13:44:59.491Z,25.43
2023-03-06T13:47:25.970Z,25.35
2023-03-06T13:49:52.447Z,25.26
2023-03-06T13:52:18.837Z,25.15
2023-03-06T13:54:45.307Z,25.02
2023-03-06T13:57:11.669Z,24.94
2023-03-06T13:59:38.025Z,24.81
2023-03-06T14:02:04.476Z,24.79
2023-03-06T14:04:30.839Z,24.67
2023-03-06T14:06:57.239Z,24.30
2023-03-06T14:09:23.720Z,24.25
2023-03-06T14:11:50.108Z,24.12
2023-03-06T14:14:16.534Z,23.97
2023-03-06T14:16:49.661Z,23.89
2023-03-06T14:19:16.498Z,23.76
2023-03-06T14:21:42.976Z,23.69
2023-03-06T14:24:09.403Z,23.57
2023-03-06T14:26:35.818Z,23.46
2023-03-06T14:29:02.402Z,23.37
2023-03-06T14:31:28.916Z,23.27
2023-03-06T14:33:55.605Z,23.19
2023-03-06T14:36:22.219Z,23.11
2023-03-06T14:38:48.661Z,23.02
2023-03-06T14:41:15.012Z,22.94
2023-03-06T14:43:41.384Z,22.86
2023-03-06T14:46:07.717Z,22.77
2023-03-06T14:48:34.082Z,22.73
2023-03-06T14:51:00.605Z,22.62
2023-03-06T14:53:27.029Z,22.58
2023-03-06T14:55:53.425Z,22.48
2023-03-06T14:58:19.968Z,22.39
2023-03-06T15:00:46.417Z,22.32
2023-03-06T15:03:12.892Z,22.23
2023-03-06T15:05:39.534Z,22.14
2023-03-06T15:08:05.921Z,22.04
2023-03-06T15:10:32.346Z,21.98
2023-03-06T15:12:58.841Z,21.89
2023-03-06T15:15:25.262Z,21.83
2023-03-06T15:17:51.649Z,21.74
2023-03-06T15:20:18.253Z,21.67
2023-03-06T15:22:44.597Z,21.60
2023-03-06T15:25:11.016Z,21.52
2023-03-06T15:27:37.808Z,21.42
2023-03-06T15:30:04.161Z,21.35
2023-03-06T15:32:30.717Z,21.31
2023-03-06T15:34:57.225Z,21.23
2023-03-06T15:37:23.580Z,21.18
2023-03-06T15:39:49.909Z,21.08
2023-03-06T15:42:16.286Z,20.98
2023-03-06T15:44:42.605Z,20.87
2023-03-06T15:47:09.507Z,20.80
2023-03-06T15:49:35.937Z,20.70
2023-03-06T15:52:02.262Z,20.62
2023-03-06T15:54:28.668Z,20.57
2023-03-06T15:56:55.299Z,20.50
2023-03-06T15:59:21.689Z,20.41
2023-03-06T16:01:48.068Z,20.33
2023-03-06T16:04:14.495Z,20.24
2023-03-06T16:06:40.832Z,20.18
2023-03-06T16:09:07.157Z,20.11
2023-03-06T16:11:43.275Z,20.03
2023-03-06T16:14:10.104Z,19.96
2023-03-06T16:16:36.497Z,19.91
2023-03-06T16:19:02.844Z,19.85
2023-03-06T16:21:29.229Z,19.81
2023-03-06T16:23:55.650Z,19.74
2023-03-06T16:26:21.996Z,19.67
2023-03-06T16:28:48.324Z,19.61
2023-03-06T16:31:14.804Z,19.52
2023-03-06T16:33:41.157Z,19.37
2023-03-06T16:36:07.478Z,19.37
2023-03-06T16:38:33.882Z,19.25
2023-03-06T16:41:00.240Z,19.27
2023-03-06T16:43:26.549Z,19.20
2023-03-06T16:45:53.076Z,19.15
2023-03-06T16:48:19.418Z,19.09
2023-03-06T16:50:45.769Z,19.01
2023-03-06T16:53:12.129Z,18.95
2023-03-06T16:55:38.507Z,18.89
2023-03-06T16:58:04.952Z,18.81
2023-03-06T17:00:31.404Z,18.76
2023-03-06T17:02:57.782Z,18.67
2023-03-06T17:05:24.126Z,18.61
2023-03-06T17:07:50.537Z,18.56
2023-03-06T17:10:16.860Z,18.51
2023-03-06T17:12:43.199Z,18.40
2023-03-06T17:15:09.569Z,18.36
2023-03-06T17:17:35.898Z,18.31
2023-03-06T17:20:02.313Z,18.24
2023-03-06T17:22:28.728Z,18.18
2023-03-06T17:24:55.044Z,18.10
2023-03-06T17:27:21.368Z,18.04
2023-03-06T17:29:47.733Z,18.00
2023-03-06T17:32:14.112Z,17.92
2023-03-06T17:34:40.677Z,17.84
2023-03-06T17:37:07.116Z,17.80
2023-03-06T17:39:33.560Z,17.74
2023-03-06T17:41:59.873Z,17.69
2023-03-06T17:44:26.246Z,17.63
2023-03-06T17:46:52.583Z,17.56
2023-03-06T17:49:18.967Z,17.50
2023-03-06T17:51:45.346Z,17.43
2023-03-06T17:54:11.663Z,17.38
2023-03-06T17:56:38.044Z,17.33
2023-03-06T17:59:04.414Z,17.26
2023-03-06T18:01:30.801Z,17.21
2023-03-06T18:03:57.155Z,17.15
2023-03-06T18:06:23.568Z,17.08
2023-03-06T18:08:52.370Z,17.02
2023-03-06T18:11:19.199Z,16.96
2023-03-06T18:13:45.549Z,16.92
2023-03-06T18:16:11.912Z,16.82
2023-03-06T18:18:38.235Z,16.81
2023-03-06T18:21:04.612Z,16.75
2023-03-06T18:23:30.925Z,16.71
2023-03-06T18:25:57.240Z,16.68
2023-03-06T18:28:23.589Z,16.65
2023-03-06T18:30:49.904Z,16.59
2023-03-06T18:33:16.225Z,16.54
2023-03-06T18:35:42.639Z,16.50
2023-03-06T18:38:09.030Z,16.45
2023-03-06T18:40:35.347Z,16.40
2023-03-06T18:43:01.710Z,16.33
2023-03-06T18:45:28.078Z,16.31
2023-03-06T18:47:54.477Z,16.27
2023-03-06T18:50:20.850Z,16.22
2023-03-06T18:52:47.209Z,16.17
2023-03-06T18:55:13.534Z,16.13
2023-03-06T18:57:39.897Z,16.08
2023-03-06T19:00:06.247Z,16.04
2023-03-06T19:02:32.586Z,15.98
2023-03-06T19:04:59.029Z,15.95
2023-03-06T19:07:25.438Z,15.89
2023-03-06T19:09:51.789Z,15.85
2023-03-06T19:12:18.158Z,15.80
2023-03-06T19:14:44.483Z,15.78
2023-03-06T19:17:10.804Z,15.71
2023-03-06T19:19:37.166Z,15.65
2023-03-06T19:22:03.477Z,15.61
2023-03-06T19:24:29.804Z,15.57
2023-03-06T19:26:56.206Z,15.50
2023-03-06T19:29:22.571Z,15.46
2023-03-06T19:31:48.992Z,15.42
2023-03-06T19:34:15.415Z,15.39
2023-03-06T19:36:41.742Z,15.35
2023-03-06T19:39:08.099Z,15.31
2023-03-06T19:41:34.480Z,15.25
2023-03-06T19:44:00.796Z,15.22
2023-03-06T19:46:27.142Z,15.17
2023-03-06T19:48:53.544Z,15.14
2023-03-06T19:51:19.874Z,15.08
2023-03-06T19:53:46.201Z,15.04
2023-03-06T19:56:12.557Z,14.98
2023-03-06T19:58:38.933Z,14.94
2023-03-06T20:01:05.309Z,14.92
2023-03-06T20:03:31.691Z,14.88
2023-03-06T20:05:58.095Z,14.80
2023-03-06T20:08:24.436Z,14.76
2023-03-06T20:10:50.797Z,14.73
2023-03-06T20:13:17.175Z,14.69
2023-03-06T20:15:43.527Z,14.65
2023-03-06T20:18:09.965Z,14.59
2023-03-06T20:20:36.305Z,14.55
2023-03-06T20:23:02.687Z,14.51
2023-03-06T20:25:29.091Z,14.49
2023-03-06T20:27:55.408Z,14.46
2023-03-06T20:30:21.736Z,14.40
2023-03-06T20:32:48.112Z,14.39
2023-03-06T20:35:14.575Z,14.36
2023-03-06T20:37:40.968Z,14.32
2023-03-06T20:40:07.355Z,14.30
2023-03-06T20:42:33.701Z,14.27
2023-03-06T20:45:00.041Z,14.23
2023-03-06T20:47:26.463Z,14.19
2023-03-06T20:49:52.773Z,14.17
2023-03-06T20:52:19.114Z,14.14
2023-03-06T20:54:45.591Z,14.10
2023-03-06T20:57:12.005Z,14.08
2023-03-06T20:59:38.355Z,14.05
2023-03-06T21:02:04.820Z,14.03
2023-03-06T21:04:31.282Z,13.99
2023-03-06T21:06:57.691Z,13.92
2023-03-06T21:09:24.165Z,13.88
2023-03-06T21:11:50.498Z,13.86
2023-03-06T21:14:16.832Z,13.82
2023-03-06T21:16:43.235Z,13.78
2023-03-06T21:19:09.558Z,13.77
2023-03-06T21:21:35.914Z,13.73
2023-03-06T21:24:02.292Z,13.68
2023-03-06T21:26:28.631Z,13.65
2023-03-06T21:28:54.975Z,13.61
2023-03-06T21:31:21.412Z,13.56
2023-03-06T21:33:47.751Z,13.52
2023-03-06T21:36:14.163Z,13.48
2023-03-06T21:38:40.594Z,13.43
2023-03-06T21:41:06.929Z,13.40
2023-03-06T21:43:33.242Z,13.37
2023-03-06T21:45:59.623Z,13.32
2023-03-06T21:48:25.987Z,13.28
2023-03-06T21:50:52.316Z,13.24
2023-03-06T21:53:18.702Z,13.19
2023-03-06T21:55:45.021Z,13.13
2023-03-06T21:58:11.422Z,13.10
2023-03-06T22:00:37.870Z,13.05
2023-03-06T22:03:04.274Z,13.00
2023-03-06T22:05:30.659Z,12.96
2023-03-06T22:07:57.065Z,12.94
2023-03-06T22:10:23.425Z,12.89
2023-03-06T22:12:49.759Z,12.86
2023-03-06T22:15:16.135Z,12.81
2023-03-06T22:17:42.445Z,12.78
2023-03-06T22:20:08.765Z,12.74
2023-03-06T22:22:35.144Z,12.71
2023-03-06T22:25:01.486Z,12.71
2023-03-06T22:27:27.808Z,12.66
2023-03-06T22:29:54.211Z,12.63
2023-03-06T22:32:20.717Z,12.58
2023-03-06T22:34:47.086Z,12.54
2023-03-06T22:37:13.477Z,12.49
2023-03-06T22:39:39.846Z,12.47
2023-03-06T22:42:06.149Z,12.46
2023-03-06T22:44:32.518Z,12.42
2023-03-06T22:46:58.843Z,12.42
2023-03-06T22:49:25.142Z,12.41
2023-03-06T22:51:51.514Z,12.35
2023-03-06T22:54:17.822Z,12.33
2023-03-06T22:56:44.150Z,12.32
2023-03-06T22:59:10.514Z,12.31
2023-03-06T23:01:36.901Z,12.27
2023-03-06T23:04:03.340Z,12.26
2023-03-06T23:06:29.922Z,12.24
2023-03-06T23:08:56.284Z,12.21
2023-03-06T23:11:22.589Z,12.18
2023-03-06T23:14:07.702Z,12.17
2023-03-06T23:16:52.422Z,12.13
2023-03-06T23:19:37.378Z,12.10
2023-03-06T23:22:22.377Z,12.05
2023-03-06T23:25:07.186Z,12.02
2023-03-06T23:27:33.609Z,11.99
2023-03-06T23:29:59.949Z,11.99
2023-03-06T23:32:26.350Z,11.95
2023-03-06T23:34:52.704Z,11.91
2023-03-06T23:37:19.034Z,11.89
2023-03-06T23:39:46.133Z,11.87
2023-03-06T23:42:12.446Z,11.82
2023-03-06T23:44:38.787Z,11.80
2023-03-06T23:47:05.216Z,11.68
2023-03-06T23:49:31.527Z,11.77
2023-03-06T23:51:57.846Z,11.75
2023-03-06T23:54:24.253Z,11.74
2023-03-06T23:56:50.574Z,11.72
2023-03-06T23:59:16.882Z,11.71
